KDBN

W H 'bud' Barron Airport

Dublin, Georgia, USA
METAR KDBN 151530Z AUTO 00000KT 10SM SCT010 BKN070 13/11 A3002 RMK AO2
Observed Flight Rules
Dec-15 @ 15:30 UTC (35 minutes ago) Visual Flight Rules
Visibility Clouds
10 miles
  • Scattered at 1,000' AGL
  • Broken at 7,000' AGL
Temperatures Readings
Current 13°C / 55°F
Dewpoint 11°C / 52°F
Humidity 88%
Altimeter 30.02" Hg
Pressure 1017 hPa
Elevation 94
METAR KDBN 151530Z AUTO 00000KT 10SM SCT010 BKN070 13/11 A3002 RMK AO2
Observed Flight Rules
Dec-15 @ 15:30 UTC
(35 minutes ago)
VFR
Clouds
  • Scattered at 1,000' AGL
  • Broken at 7,000' AGL
Temperature Dewpoint
13°C / 55°F 11°C / 52°F
Humidity Altimeter Pressure
88% 30.02" Hg 1017 hPa